Clatskanie, OR (97016)

12:59 PM PST on January 21, 2017 (GMT -0800)
Elementary school | | Change Station

Elev 75 ft 46.10 °N, 123.21 °W | Updated 23 seconds ago

Rain
Rain
45.3 °F
Feels Like 42 °F
N
6.8
Wind Variable Wind from ESE

Today
High -- | Low -- °F
--% Chance of Precip.
Yesterday
High -- | Low -- °F
Precip. -- in
Pressure 29.43 in
Visibility -9999.0 miles
Clouds Few 1900 ft
Scattered Clouds 3000 ft
Overcast 4400 ft
Windchill 42 °F
Dew Point 41 °F
Humidity 84%
Rainfall 0.02 in
Snow Depth Not available.
7:46 AM 5:02 PM
Waning Crescent, 32% visible
METAR KKLS 212056Z AUTO 16007KT FEW019 SCT030 OVC044 08/06 A2941 RMK AO2 SLP964 P0002 60002 T00780056 51013 PWINO $
Pressure 29.43 in
Visibility -9999.0 miles
Clouds Few 1900 ft
Scattered Clouds 3000 ft
Overcast 4400 ft
Windchill 42 °F
Dew Point 41 °F
Humidity 84%
Rainfall 0.02 in
Snow Depth Not available.
7:46 AM 5:02 PM
Waning Crescent, 32% visible
METAR KKLS 212056Z AUTO 16007KT FEW019 SCT030 OVC044 08/06 A2941 RMK AO2 SLP964 P0002 60002 T00780056 51013 PWINO $

Get Your Daily Forecast Email!

Thanks for signing up!

Be on the lookout for a verification email in your inbox.

You'll start receiving the daily forecast at 8 AM.

×

10-Day Weather Forecast

Almanac

Astronomy

Jan. 21, 2017 Rise Set
Actual Time
Civil Twilight
Nautical Twilight
Astronomical Twilight
Moon
Length of Visible Light
Length of Day
Tomorrow will be .
, % of the Moon is Illuminated

Today's Extremes

State Highs State Lows

Community

WunderPhotos

Upload Photos

1,962,540 photos uploaded!

WunderBlog® & News

Nearby

Air Quality

  Air Quality AQ Index Pollutant
Not available.

Snow Depth

Station Depth Elevation

Earthquake Activity

City Distance Mag. Time & Date
Minimum magnitude displayed is 2.5.

Coastal Water Temperatures

Place Temperature

Stations

Nearby Weather Stations

Station Location Temp. Windchill Dew Point Humidity Wind Precip. Elev Updated Type
                   

Watches & Warnings

Small Craft for Rough Bar Advisory
Issued: 8:47 AM PST Jan. 21, 2017 – National Weather Service

... Small Craft Advisory for rough Columbia River bar now in
effect until 3 PM PST Sunday...

* in the Main Channel...

* general seas... 20 feet Saturday... subsiding to 16 feet late
Saturday night through Sunday.

* First Ebb... seas temporarily building to 24 ft with breakers
during the Ebb around 12 PM Saturday.

* Second Ebb... seas temporarily building to 21 feet with breakers
during the Ebb around 1215 am Sunday.

Precautionary/preparedness actions...

A Small Craft Advisory for rough bar means that wave conditions
are expected to be hazardous to small craft in or near Harbor
entrances.